PWSweather.com
Personal Weather Stations
Station Observations
KNVELKO7
Elko, NV 89801

Elko, NV 89801

Lat: 40.963233, Lon: -115.592836

Elevation: 5230

Station Type: WS-2812

Latest ConditionsUpdated 6:25:19 AM PDT Saturday, Mar 25, 2017
Currently Today's Max Today's Min Today's Average
Temperature 37.4°F3.0°C 41.4°F5.2°C 37.4°F3.0°C 40.0°F4.4°C
Dew Point 32.4°F0.2°C 36.3°F2.4°C 32.4°F0.2°C 34.9°F1.6°C
Winds 2.2 mph ESE3.5 kmh ESE 6.4 mph SE10.3 kmh SE - 2.3 mph 3.7 kmh
Wind Gusts 2.5 mph4.0 kmh 7.2 mph11.6 kmh - -
Humidity 82% 83% 80% 82%
Pressure 30.06 in1017.9 mb 30.09 in1019.0 mb 30.06 in1017.9 mb -
Hour Temp Dew Point Humidity Winds Wind Gusts Pressure Precip Precip Rate Daily Precip Total
06:25 AM 37.4°F3.0°C 32.4°F0.2°C 82% 2.2 mph ESE3.5 kmh ESE 2.5 mph4.0 kmh 30.06 in1017.9 mb 0.00 in0.0 mm 0.00 in0.0 mm 0.07 in1.8 mm
06:20 AM 37.6°F3.1°C 32.6°F0.3°C 82% 1.2 mph ESE1.9 kmh ESE 3.4 mph5.5 kmh 30.06 in1017.9 mb 0.00 in0.0 mm 0.00 in0.0 mm 0.07 in1.8 mm
06:15 AM 37.8°F3.2°C 32.8°F0.4°C 82% 2.0 mph ESE3.2 kmh ESE 3.4 mph5.5 kmh 30.06 in1017.9 mb 0.00 in0.0 mm 0.00 in0.0 mm 0.07 in1.8 mm
06:10 AM 38.0°F3.3°C 32.9°F0.5°C 82% 2.0 mph ESE3.2 kmh ESE 2.7 mph4.3 kmh 30.06 in1017.9 mb 0.00 in0.0 mm 0.00 in0.0 mm 0.07 in1.8 mm
06:05 AM 38.2°F3.4°C 33.1°F0.6°C 82% 1.6 mph ESE2.6 kmh ESE 2.7 mph4.3 kmh 30.06 in1017.9 mb 0.00 in0.0 mm 0.00 in0.0 mm 0.07 in1.8 mm
06:00 AM 38.3°F3.5°C 33.3°F0.7°C 82% 2.3 mph ESE3.7 kmh ESE 2.5 mph4.0 kmh 30.06 in1017.9 mb 0.00 in0.0 mm 0.00 in0.0 mm 0.07 in1.8 mm
05:54 AM 38.5°F3.6°C 33.5°F0.8°C 82% 1.5 mph W2.4 kmh W 2.5 mph4.0 kmh 30.06 in1017.9 mb 0.00 in0.0 mm 0.00 in0.0 mm 0.07 in1.8 mm
05:49 AM 38.7°F3.7°C 33.7°F0.9°C 82% Calm Calm 2.5 mph4.0 kmh 30.06 in1017.9 mb 0.00 in0.0 mm 0.00 in0.0 mm 0.07 in1.8 mm
05:44 AM 38.7°F3.7°C 33.4°F0.8°C 81% 0.4 mph 0.6 kmh 2.5 mph4.0 kmh 30.06 in1017.9 mb 0.00 in0.0 mm 0.00 in0.0 mm 0.07 in1.8 mm
05:39 AM 38.9°F3.8°C 33.6°F0.9°C 81% 1.9 mph NNE3.1 kmh NNE 4.7 mph7.6 kmh 30.06 in1017.9 mb 0.00 in0.0 mm 0.00 in0.0 mm 0.07 in1.8 mm
05:34 AM 38.9°F3.8°C 33.6°F0.9°C 81% 2.7 mph 4.3 kmh 5.4 mph8.7 kmh 30.06 in1017.9 mb 0.00 in0.0 mm 0.00 in0.0 mm 0.07 in1.8 mm
05:29 AM 39.1°F3.9°C 33.5°F0.8°C 80% 5.3 mph 8.5 kmh 5.4 mph8.7 kmh 30.06 in1017.9 mb 0.00 in0.0 mm 0.00 in0.0 mm 0.07 in1.8 mm
05:24 AM 39.2°F4.0°C 33.9°F1.1°C 81% 4.2 mph N6.8 kmh N 5.8 mph9.3 kmh 30.06 in1017.9 mb 0.00 in0.0 mm 0.00 in0.0 mm 0.07 in1.8 mm
05:19 AM 39.4°F4.1°C 34.1°F1.2°C 81% 3.8 mph NNW6.1 kmh NNW 6.5 mph10.5 kmh 30.06 in1017.9 mb 0.00 in0.0 mm 0.00 in0.0 mm 0.07 in1.8 mm
05:14 AM 39.2°F4.0°C 33.9°F1.1°C 81% 4.3 mph NNW6.9 kmh NNW 6.9 mph11.1 kmh 30.06 in1017.9 mb 0.00 in0.0 mm 0.00 in0.0 mm 0.07 in1.8 mm
05:09 AM 39.2°F4.0°C 33.9°F1.1°C 81% 2.2 mph NE3.5 kmh NE 7.2 mph11.6 kmh 30.06 in1017.9 mb 0.00 in0.0 mm 0.00 in0.0 mm 0.07 in1.8 mm
05:04 AM 39.2°F4.0°C 34.2°F1.2°C 82% 5.8 mph ESE9.3 kmh ESE 7.2 mph11.6 kmh 30.06 in1017.9 mb 0.00 in0.0 mm 0.00 in0.0 mm 0.07 in1.8 mm
05:00 AM 39.2°F4.0°C 34.2°F1.2°C 82% 5.7 mph SE9.2 kmh SE 6.5 mph10.5 kmh 30.06 in1017.9 mb 0.00 in0.0 mm 0.00 in0.0 mm 0.07 in1.8 mm
04:54 AM 39.1°F3.9°C 34.0°F1.1°C 82% 6.4 mph SE10.3 kmh SE 6.5 mph10.5 kmh 30.06 in1017.9 mb 0.00 in0.0 mm 0.00 in0.0 mm 0.07 in1.8 mm
04:49 AM 39.2°F4.0°C 34.2°F1.2°C 82% 3.7 mph SE6.0 kmh SE 6.3 mph10.1 kmh 30.07 in1018.3 mb 0.00 in0.0 mm 0.00 in0.0 mm 0.07 in1.8 mm
04:44 AM 39.4°F4.1°C 34.4°F1.3°C 82% 5.5 mph SE8.9 kmh SE 6.3 mph10.1 kmh 30.06 in1017.9 mb 0.00 in0.0 mm 0.00 in0.0 mm 0.07 in1.8 mm
04:39 AM 39.6°F4.2°C 34.8°F1.6°C 83% 2.2 mph SW3.5 kmh SW 3.8 mph6.1 kmh 30.07 in1018.3 mb 0.00 in0.0 mm 0.00 in0.0 mm 0.07 in1.8 mm
04:34 AM 39.4°F4.1°C 34.7°F1.5°C 83% 1.8 mph WSW2.9 kmh WSW 2.0 mph3.2 kmh 30.07 in1018.3 mb 0.00 in0.0 mm 0.00 in0.0 mm 0.07 in1.8 mm
04:29 AM 39.4°F4.1°C 34.7°F1.5°C 83% 0.4 mph SSE0.6 kmh SSE 3.8 mph6.1 kmh 30.07 in1018.3 mb 0.00 in0.0 mm 0.00 in0.0 mm 0.07 in1.8 mm
04:24 AM 39.6°F4.2°C 34.8°F1.6°C 83% 2.2 mph SSE3.5 kmh SSE 3.8 mph6.1 kmh 30.07 in1018.3 mb 0.00 in0.0 mm 0.00 in0.0 mm 0.07 in1.8 mm
04:19 AM 39.6°F4.2°C 34.8°F1.6°C 83% 3.3 mph SE5.3 kmh SE 4.5 mph7.2 kmh 30.07 in1018.3 mb 0.00 in0.0 mm 0.00 in0.0 mm 0.07 in1.8 mm
04:14 AM 39.6°F4.2°C 34.8°F1.6°C 83% 2.2 mph E3.5 kmh E 6.3 mph10.1 kmh 30.07 in1018.3 mb 0.00 in0.0 mm 0.00 in0.0 mm 0.07 in1.8 mm
04:09 AM 39.6°F4.2°C 34.6°F1.4°C 82% 2.3 mph NE3.7 kmh NE 6.3 mph10.1 kmh 30.07 in1018.3 mb 0.00 in0.0 mm 0.00 in0.0 mm 0.07 in1.8 mm
04:04 AM 39.8°F4.3°C 34.8°F1.6°C 82% 4.1 mph NE6.6 kmh NE 6.5 mph10.5 kmh 30.07 in1018.3 mb 0.00 in0.0 mm 0.00 in0.0 mm 0.07 in1.8 mm
03:59 AM 40.0°F4.4°C 35.2°F1.8°C 83% 2.2 mph SW3.5 kmh SW 6.5 mph10.5 kmh 30.07 in1018.3 mb 0.00 in0.0 mm 0.00 in0.0 mm 0.07 in1.8 mm
03:54 AM 40.0°F4.4°C 35.2°F1.8°C 83% 4.3 mph S6.9 kmh S 4.5 mph7.2 kmh 30.07 in1018.3 mb 0.00 in0.0 mm 0.00 in0.0 mm 0.07 in1.8 mm
03:49 AM 40.0°F4.4°C 35.2°F1.8°C 83% 2.2 mph SW3.5 kmh SW 3.4 mph5.5 kmh 30.07 in1018.3 mb 0.00 in0.0 mm 0.00 in0.0 mm 0.07 in1.8 mm
03:44 AM 40.0°F4.4°C 35.2°F1.8°C 83% Calm Calm 2.9 mph4.7 kmh 30.07 in1018.3 mb 0.00 in0.0 mm 0.00 in0.0 mm 0.07 in1.8 mm
03:39 AM 40.0°F4.4°C 35.2°F1.8°C 83% 1.5 mph W2.4 kmh W 3.4 mph5.5 kmh 30.07 in1018.3 mb 0.00 in0.0 mm 0.00 in0.0 mm 0.07 in1.8 mm
03:34 AM 40.0°F4.4°C 35.2°F1.8°C 83% 2.0 mph W3.2 kmh W 3.4 mph5.5 kmh 30.07 in1018.3 mb 0.00 in0.0 mm 0.00 in0.0 mm 0.07 in1.8 mm
03:29 AM 40.0°F4.4°C 34.9°F1.6°C 82% 2.3 mph NW3.7 kmh NW 2.5 mph4.0 kmh 30.07 in1018.3 mb 0.00 in0.0 mm 0.00 in0.0 mm 0.07 in1.8 mm
03:24 AM 40.0°F4.4°C 34.9°F1.6°C 82% 1.0 mph N1.6 kmh N 2.0 mph3.2 kmh 30.07 in1018.3 mb 0.00 in0.0 mm 0.00 in0.0 mm 0.07 in1.8 mm
03:19 AM 40.0°F4.4°C 34.9°F1.6°C 82% 2.0 mph E3.2 kmh E 2.0 mph3.2 kmh 30.07 in1018.3 mb 0.00 in0.0 mm 0.00 in0.0 mm 0.07 in1.8 mm
03:14 AM 40.0°F4.4°C 34.9°F1.6°C 82% 1.1 mph N1.8 kmh N 1.1 mph1.8 kmh 30.07 in1018.3 mb 0.00 in0.0 mm 0.00 in0.0 mm 0.07 in1.8 mm
03:09 AM 40.1°F4.5°C 35.1°F1.7°C 82% Calm Calm 1.8 mph2.9 kmh 30.07 in1018.3 mb 0.00 in0.0 mm 0.00 in0.0 mm 0.07 in1.8 mm
03:04 AM 40.1°F4.5°C 35.1°F1.7°C 82% 0.9 mph 1.4 kmh 2.0 mph3.2 kmh 30.07 in1018.3 mb 0.00 in0.0 mm 0.00 in0.0 mm 0.07 in1.8 mm
02:58 AM 40.3°F4.6°C 35.6°F2.0°C 83% 1.2 mph 1.9 kmh 2.0 mph3.2 kmh 30.07 in1018.3 mb 0.00 in0.0 mm 0.00 in0.0 mm 0.07 in1.8 mm
02:53 AM 40.3°F4.6°C 35.6°F2.0°C 83% Calm Calm 2.9 mph4.7 kmh 30.07 in1018.3 mb 0.00 in0.0 mm 0.00 in0.0 mm 0.07 in1.8 mm
02:48 AM 40.3°F4.6°C 35.6°F2.0°C 83% 2.3 mph 3.7 kmh 4.0 mph6.4 kmh 30.07 in1018.3 mb 0.00 in0.0 mm 0.00 in0.0 mm 0.07 in1.8 mm
02:43 AM 40.3°F4.6°C 35.2°F1.8°C 82% 2.5 mph 4.0 kmh 5.6 mph9.0 kmh 30.07 in1018.3 mb 0.00 in0.0 mm 0.00 in0.0 mm 0.07 in1.8 mm
02:39 AM 40.3°F4.6°C 35.2°F1.8°C 82% 4.5 mph 7.2 kmh 5.8 mph9.3 kmh 30.07 in1018.3 mb 0.00 in0.0 mm 0.00 in0.0 mm 0.07 in1.8 mm
02:34 AM 40.5°F4.7°C 35.7°F2.1°C 83% 5.7 mph 9.2 kmh 5.8 mph9.3 kmh 30.07 in1018.3 mb 0.00 in0.0 mm 0.00 in0.0 mm 0.07 in1.8 mm
02:29 AM 40.5°F4.7°C 35.4°F1.9°C 82% 2.2 mph NW3.5 kmh NW 2.2 mph3.5 kmh 30.07 in1018.3 mb 0.00 in0.0 mm 0.00 in0.0 mm 0.07 in1.8 mm
02:24 AM 40.5°F4.7°C 35.4°F1.9°C 82% Calm Calm 2.7 mph4.3 kmh 30.07 in1018.3 mb 0.00 in0.0 mm 0.00 in0.0 mm 0.07 in1.8 mm
02:19 AM 40.5°F4.7°C 35.4°F1.9°C 82% 1.2 mph SSW1.9 kmh SSW 2.7 mph4.3 kmh 30.07 in1018.3 mb 0.00 in0.0 mm 0.00 in0.0 mm 0.07 in1.8 mm
02:14 AM 40.5°F4.7°C 35.4°F1.9°C 82% 1.5 mph SE2.4 kmh SE 2.9 mph4.7 kmh 30.07 in1018.3 mb 0.00 in0.0 mm 0.00 in0.0 mm 0.07 in1.8 mm
02:09 AM 40.5°F4.7°C 35.4°F1.9°C 82% 2.0 mph ESE3.2 kmh ESE 2.9 mph4.7 kmh 30.07 in1018.3 mb 0.00 in0.0 mm 0.00 in0.0 mm 0.07 in1.8 mm
02:04 AM 40.7°F4.8°C 35.6°F2.0°C 82% 1.5 mph ESE2.4 kmh ESE 2.5 mph4.0 kmh 30.08 in1018.6 mb 0.00 in0.0 mm 0.00 in0.0 mm 0.07 in1.8 mm
01:58 AM 40.7°F4.8°C 35.6°F2.0°C 82% 1.8 mph ENE2.9 kmh ENE 3.8 mph6.1 kmh 30.08 in1018.6 mb 0.00 in0.0 mm 0.00 in0.0 mm 0.07 in1.8 mm
01:53 AM 40.7°F4.8°C 35.8°F2.1°C 83% 2.5 mph E4.0 kmh E 3.8 mph6.1 kmh 30.08 in1018.6 mb 0.00 in0.0 mm 0.00 in0.0 mm 0.07 in1.8 mm
01:48 AM 40.7°F4.8°C 35.6°F2.0°C 82% 3.4 mph ENE5.5 kmh ENE 3.6 mph5.8 kmh 30.07 in1018.3 mb 0.00 in0.0 mm 0.00 in0.0 mm 0.07 in1.8 mm
01:43 AM 40.7°F4.8°C 35.8°F2.1°C 83% 2.3 mph E3.7 kmh E 2.9 mph4.7 kmh 30.08 in1018.6 mb 0.00 in0.0 mm 0.00 in0.0 mm 0.07 in1.8 mm
01:38 AM 40.9°F4.9°C 35.7°F2.1°C 82% 1.5 mph SW2.4 kmh SW 1.6 mph2.6 kmh 30.08 in1018.6 mb 0.00 in0.0 mm 0.00 in0.0 mm 0.07 in1.8 mm
01:33 AM 40.9°F4.9°C 35.7°F2.1°C 82% Calm Calm 2.0 mph3.2 kmh 30.08 in1018.6 mb 0.00 in0.0 mm 0.00 in0.0 mm 0.07 in1.8 mm
01:28 AM 40.9°F4.9°C 35.5°F1.9°C 81% 1.0 mph SW1.6 kmh SW 4.3 mph6.9 kmh 30.08 in1018.6 mb 0.00 in0.0 mm 0.00 in0.0 mm 0.07 in1.8 mm
01:23 AM 41.0°F5.0°C 35.6°F2.0°C 81% 2.5 mph WSW4.0 kmh WSW 4.3 mph6.9 kmh 30.08 in1018.6 mb 0.00 in0.0 mm 0.00 in0.0 mm 0.07 in1.8 mm
01:18 AM 41.0°F5.0°C 35.6°F2.0°C 81% 3.2 mph SW5.1 kmh SW 4.5 mph7.2 kmh 30.08 in1018.6 mb 0.00 in0.0 mm 0.00 in0.0 mm 0.07 in1.8 mm
01:13 AM 41.0°F5.0°C 35.6°F2.0°C 81% 2.2 mph WSW3.5 kmh WSW 4.7 mph7.6 kmh 30.07 in1018.3 mb 0.00 in0.0 mm 0.00 in0.0 mm 0.07 in1.8 mm
01:09 AM 41.0°F5.0°C 35.6°F2.0°C 81% 4.0 mph SW6.4 kmh SW 4.7 mph7.6 kmh 30.08 in1018.6 mb 0.00 in0.0 mm 0.00 in0.0 mm 0.07 in1.8 mm
01:04 AM 41.2°F5.1°C 35.7°F2.1°C 81% 4.1 mph SW6.6 kmh SW 4.7 mph7.6 kmh 30.08 in1018.6 mb 0.00 in0.0 mm 0.00 in0.0 mm 0.07 in1.8 mm
12:58 AM 41.2°F5.1°C 35.7°F2.1°C 81% 3.3 mph SW5.3 kmh SW 3.8 mph6.1 kmh 30.08 in1018.6 mb 0.00 in0.0 mm 0.00 in0.0 mm 0.07 in1.8 mm
12:53 AM 41.2°F5.1°C 35.7°F2.1°C 81% 3.4 mph WSW5.5 kmh WSW 4.0 mph6.4 kmh 30.08 in1018.6 mb 0.00 in0.0 mm 0.00 in0.0 mm 0.07 in1.8 mm
12:48 AM 41.2°F5.1°C 35.7°F2.1°C 81% 3.5 mph WSW5.6 kmh WSW 4.0 mph6.4 kmh 30.08 in1018.6 mb 0.00 in0.0 mm 0.00 in0.0 mm 0.07 in1.8 mm
12:43 AM 41.2°F5.1°C 36.1°F2.3°C 82% 2.7 mph SW4.3 kmh SW 3.4 mph5.5 kmh 30.08 in1018.6 mb 0.00 in0.0 mm 0.00 in0.0 mm 0.07 in1.8 mm
12:38 AM 41.2°F5.1°C 36.1°F2.3°C 82% 2.5 mph SW4.0 kmh SW 2.5 mph4.0 kmh 30.08 in1018.6 mb 0.00 in0.0 mm 0.00 in0.0 mm 0.07 in1.8 mm
12:33 AM 41.2°F5.1°C 36.1°F2.3°C 82% 1.1 mph SW1.8 kmh SW 2.5 mph4.0 kmh 30.08 in1018.6 mb 0.00 in0.0 mm 0.00 in0.0 mm 0.07 in1.8 mm
12:28 AM 41.2°F5.1°C 36.1°F2.3°C 82% 2.3 mph SW3.7 kmh SW 2.5 mph4.0 kmh 30.08 in1018.6 mb 0.01 in0.3 mm 0.00 in0.0 mm 0.07 in1.8 mm
12:23 AM 41.4°F5.2°C 36.3°F2.4°C 82% 0.4 mph SSE0.6 kmh SSE 2.5 mph4.0 kmh 30.08 in1018.6 mb 0.01 in0.3 mm 0.00 in0.0 mm 0.07 in1.8 mm
12:18 AM 41.4°F5.2°C 36.3°F2.4°C 82% 0.2 mph SSE0.3 kmh SSE 2.5 mph4.0 kmh 30.08 in1018.6 mb 0.02 in0.5 mm 0.00 in0.0 mm 0.07 in1.8 mm
12:13 AM 41.4°F5.2°C 36.3°F2.4°C 82% 1.2 mph SSE1.9 kmh SSE 2.5 mph4.0 kmh 30.08 in1018.6 mb 0.03 in0.8 mm 0.00 in0.0 mm 0.07 in1.8 mm
12:08 AM 41.4°F5.2°C 36.3°F2.4°C 82% 1.5 mph SSE2.4 kmh SSE 4.3 mph6.9 kmh 30.08 in1018.6 mb 0.05 in1.3 mm 0.00 in0.0 mm 0.07 in1.8 mm
12:03 AM 41.4°F5.2°C 36.3°F2.4°C 82% 2.3 mph SSE3.7 kmh SSE 5.4 mph8.7 kmh 30.09 in1019.0 mb 0.07 in1.8 mm 1.40 in35.6 mm 0.07 in1.8 mm